TAF KGGG
KGGG 090532Z 0906/1006 16007KT P6SM OVC010 FM090800 16010KT P6SM OVC008 FM091500 20018G25KT P6SM OVC015 FM092100 21016G22KT P6SM BKN050 FM100000 17009KT P6SM BKN250=
METAR KGGG
WC KGGG
WS KGGG
WV KGGG